Terminal Aerodrome Forecast
Issued by NWS

Home | Current Version | Previous Version | Text Only | Print | Product List | Glossary On
Versions: 1 2 3 4 5 6 7 8 9 10 11 12 13
840
FTUS43 KAPX 201732 AAB
TAFMBL
TAF AMD
KMBL 201732Z 2018/2118 21006KT P6SM SKC WS015/23030KT
     FM210100 17007KT P6SM FEW250 WS015/23030KT
     FM210300 17006KT P6SM FEW250 WS017/20035KT
     FM210900 17008KT P6SM FEW200 WS017/23035KT
     FM211300 17008KT P6SM SCT150=

USA.gov is the U.S. government's official web portal to all federal, state and local government web resources and services.